sensor_id;sensor_type;location;lat;lon;timestamp;P1;durP1;ratioP1;P2;durP2;ratioP2
35239;SDS011;21376;50.954;4.716;2024-02-14T00:24:19;6.53;;;3.75;;
35239;SDS011;21376;50.954;4.716;2024-02-14T00:29:17;6.47;;;4.30;;
35239;SDS011;21376;50.954;4.716;2024-02-14T00:31:44;7.57;;;4.10;;
35239;SDS011;21376;50.954;4.716;2024-02-14T00:34:13;6.88;;;4.55;;
35239;SDS011;21376;50.954;4.716;2024-02-14T00:39:09;6.97;;;4.47;;
35239;SDS011;21376;50.954;4.716;2024-02-14T00:41:52;9.10;;;4.55;;
35239;SDS011;21376;50.954;4.716;2024-02-14T00:44:33;7.65;;;4.22;;
35239;SDS011;21376;50.954;4.716;2024-02-14T00:47:13;6.97;;;4.93;;
35239;SDS011;21376;50.954;4.716;2024-02-14T00:49:40;6.15;;;3.97;;
35239;SDS011;21376;50.954;4.716;2024-02-14T00:52:09;14.60;;;4.22;;
35239;SDS011;21376;50.954;4.716;2024-02-14T00:54:37;5.30;;;3.88;;
35239;SDS011;21376;50.954;4.716;2024-02-14T00:59:37;6.95;;;4.35;;
35239;SDS011;21376;50.954;4.716;2024-02-14T01:02:08;8.32;;;4.30;;
35239;SDS011;21376;50.954;4.716;2024-02-14T01:04:34;6.63;;;4.13;;
35239;SDS011;21376;50.954;4.716;2024-02-14T01:09:32;5.53;;;4.00;;
35239;SDS011;21376;50.954;4.716;2024-02-14T01:12:01;6.82;;;4.45;;
35239;SDS011;21376;50.954;4.716;2024-02-14T01:17:10;5.38;;;3.63;;
35239;SDS011;21376;50.954;4.716;2024-02-14T01:19:37;7.80;;;3.85;;
35239;SDS011;21376;50.954;4.716;2024-02-14T01:22:06;8.10;;;4.75;;
35239;SDS011;21376;50.954;4.716;2024-02-14T01:24:43;7.88;;;4.25;;
35239;SDS011;21376;50.954;4.716;2024-02-14T01:27:11;6.53;;;4.20;;
35239;SDS011;21376;50.954;4.716;2024-02-14T01:29:45;8.02;;;4.78;;
35239;SDS011;21376;50.954;4.716;2024-02-14T01:34:57;6.67;;;4.37;;
35239;SDS011;21376;50.954;4.716;2024-02-14T01:37:22;7.20;;;4.43;;
35239;SDS011;21376;50.954;4.716;2024-02-14T01:39:48;9.48;;;4.43;;
35239;SDS011;21376;50.954;4.716;2024-02-14T01:42:20;6.25;;;4.78;;
35239;SDS011;21376;50.954;4.716;2024-02-14T01:44:52;9.45;;;5.40;;
35239;SDS011;21376;50.954;4.716;2024-02-14T01:47:19;9.55;;;4.85;;
35239;SDS011;21376;50.954;4.716;2024-02-14T01:54:47;9.00;;;4.57;;
35239;SDS011;21376;50.954;4.716;2024-02-14T02:02:46;7.07;;;4.70;;
35239;SDS011;21376;50.954;4.716;2024-02-14T02:05:21;9.32;;;5.40;;
35239;SDS011;21376;50.954;4.716;2024-02-14T02:10:18;11.52;;;5.57;;
35239;SDS011;21376;50.954;4.716;2024-02-14T02:12:48;9.38;;;5.63;;
35239;SDS011;21376;50.954;4.716;2024-02-14T02:15:19;8.50;;;5.45;;
35239;SDS011;21376;50.954;4.716;2024-02-14T02:17:48;15.02;;;6.18;;
35239;SDS011;21376;50.954;4.716;2024-02-14T02:22:46;10.63;;;6.07;;
35239;SDS011;21376;50.954;4.716;2024-02-14T02:25:19;12.00;;;6.18;;
35239;SDS011;21376;50.954;4.716;2024-02-14T02:30:24;9.18;;;6.05;;
35239;SDS011;21376;50.954;4.716;2024-02-14T02:35:22;10.10;;;5.35;;
35239;SDS011;21376;50.954;4.716;2024-02-14T02:41:19;10.48;;;6.00;;
35239;SDS011;21376;50.954;4.716;2024-02-14T02:43:45;9.35;;;5.97;;
35239;SDS011;21376;50.954;4.716;2024-02-14T02:49:54;9.68;;;5.97;;
35239;SDS011;21376;50.954;4.716;2024-02-14T02:58:55;11.07;;;5.43;;
35239;SDS011;21376;50.954;4.716;2024-02-14T03:01:21;9.40;;;5.57;;
35239;SDS011;21376;50.954;4.716;2024-02-14T03:03:49;9.30;;;6.03;;
35239;SDS011;21376;50.954;4.716;2024-02-14T03:06:16;10.52;;;6.68;;
35239;SDS011;21376;50.954;4.716;2024-02-14T03:08:44;10.27;;;6.03;;
35239;SDS011;21376;50.954;4.716;2024-02-14T03:11:14;9.05;;;6.00;;
35239;SDS011;21376;50.954;4.716;2024-02-14T03:13:40;12.30;;;6.65;;
35239;SDS011;21376;50.954;4.716;2024-02-14T03:16:15;9.82;;;6.68;;
35239;SDS011;21376;50.954;4.716;2024-02-14T03:18:45;11.30;;;6.90;;
35239;SDS011;21376;50.954;4.716;2024-02-14T03:21:14;11.02;;;6.90;;
35239;SDS011;21376;50.954;4.716;2024-02-14T03:23:40;13.65;;;7.38;;
35239;SDS011;21376;50.954;4.716;2024-02-14T03:26:22;13.35;;;7.60;;
35239;SDS011;21376;50.954;4.716;2024-02-14T03:31:21;12.93;;;7.78;;
35239;SDS011;21376;50.954;4.716;2024-02-14T03:33:51;16.85;;;7.97;;
35239;SDS011;21376;50.954;4.716;2024-02-14T03:39:21;12.93;;;9.55;;
35239;SDS011;21376;50.954;4.716;2024-02-14T03:41:53;13.68;;;8.93;;
35239;SDS011;21376;50.954;4.716;2024-02-14T03:44:22;15.68;;;10.02;;
35239;SDS011;21376;50.954;4.716;2024-02-14T03:46:51;16.77;;;10.20;;
35239;SDS011;21376;50.954;4.716;2024-02-14T03:49:18;14.48;;;9.95;;
35239;SDS011;21376;50.954;4.716;2024-02-14T03:51:54;15.32;;;9.82;;
35239;SDS011;21376;50.954;4.716;2024-02-14T03:54:24;19.27;;;11.40;;
35239;SDS011;21376;50.954;4.716;2024-02-14T03:56:54;16.17;;;10.18;;
35239;SDS011;21376;50.954;4.716;2024-02-14T03:59:24;18.88;;;10.95;;
35239;SDS011;21376;50.954;4.716;2024-02-14T04:01:49;16.95;;;10.25;;
35239;SDS011;21376;50.954;4.716;2024-02-14T04:04:21;18.70;;;11.30;;
35239;SDS011;21376;50.954;4.716;2024-02-14T04:09:20;17.40;;;10.57;;
35239;SDS011;21376;50.954;4.716;2024-02-14T04:11:56;14.60;;;9.73;;
35239;SDS011;21376;50.954;4.716;2024-02-14T04:14:22;20.42;;;10.43;;
35239;SDS011;21376;50.954;4.716;2024-02-14T04:16:48;21.73;;;11.10;;
35239;SDS011;21376;50.954;4.716;2024-02-14T04:19:16;15.90;;;10.73;;
35239;SDS011;21376;50.954;4.716;2024-02-14T04:21:46;18.65;;;10.73;;
35239;SDS011;21376;50.954;4.716;2024-02-14T04:24:11;20.48;;;11.13;;
35239;SDS011;21376;50.954;4.716;2024-02-14T04:26:38;16.98;;;10.13;;
35239;SDS011;21376;50.954;4.716;2024-02-14T04:32:29;15.40;;;10.18;;
35239;SDS011;21376;50.954;4.716;2024-02-14T04:35:01;19.98;;;10.95;;
35239;SDS011;21376;50.954;4.716;2024-02-14T04:37:30;17.25;;;10.18;;
35239;SDS011;21376;50.954;4.716;2024-02-14T04:39:59;15.18;;;9.18;;
35239;SDS011;21376;50.954;4.716;2024-02-14T04:42:28;16.33;;;9.38;;
35239;SDS011;21376;50.954;4.716;2024-02-14T04:44:57;11.45;;;8.45;;
35239;SDS011;21376;50.954;4.716;2024-02-14T04:47:25;14.38;;;9.82;;
35239;SDS011;21376;50.954;4.716;2024-02-14T04:49:50;16.45;;;9.52;;
35239;SDS011;21376;50.954;4.716;2024-02-14T04:52:17;16.08;;;9.50;;
35239;SDS011;21376;50.954;4.716;2024-02-14T04:54:45;14.82;;;9.60;;
35239;SDS011;21376;50.954;4.716;2024-02-14T04:57:11;16.33;;;9.48;;
35239;SDS011;21376;50.954;4.716;2024-02-14T04:59:37;11.50;;;8.75;;
35239;SDS011;21376;50.954;4.716;2024-02-14T05:02:03;12.48;;;9.02;;
35239;SDS011;21376;50.954;4.716;2024-02-14T05:04:32;12.80;;;9.55;;
35239;SDS011;21376;50.954;4.716;2024-02-14T05:09:32;11.88;;;8.88;;
35239;SDS011;21376;50.954;4.716;2024-02-14T05:12:01;18.10;;;9.27;;
35239;SDS011;21376;50.954;4.716;2024-02-14T05:17:00;14.90;;;9.25;;
35239;SDS011;21376;50.954;4.716;2024-02-14T05:21:58;19.38;;;8.80;;
35239;SDS011;21376;50.954;4.716;2024-02-14T05:24:24;23.02;;;10.38;;
35239;SDS011;21376;50.954;4.716;2024-02-14T05:26:55;15.50;;;9.85;;
35239;SDS011;21376;50.954;4.716;2024-02-14T05:29:30;26.23;;;11.20;;
35239;SDS011;21376;50.954;4.716;2024-02-14T05:31:58;16.58;;;9.88;;
35239;SDS011;21376;50.954;4.716;2024-02-14T05:34:27;18.52;;;10.48;;
35239;SDS011;21376;50.954;4.716;2024-02-14T05:39:25;17.88;;;11.40;;
35239;SDS011;21376;50.954;4.716;2024-02-14T05:44:36;20.95;;;11.13;;
35239;SDS011;21376;50.954;4.716;2024-02-14T05:49:31;17.10;;;10.80;;
35239;SDS011;21376;50.954;4.716;2024-02-14T05:51:57;20.50;;;12.57;;
35239;SDS011;21376;50.954;4.716;2024-02-14T05:54:29;20.10;;;12.07;;
35239;SDS011;21376;50.954;4.716;2024-02-14T05:59:23;16.95;;;11.15;;
35239;SDS011;21376;50.954;4.716;2024-02-14T06:02:06;20.58;;;11.07;;
35239;SDS011;21376;50.954;4.716;2024-02-14T06:04:38;16.98;;;10.85;;
35239;SDS011;21376;50.954;4.716;2024-02-14T06:07:07;19.02;;;11.20;;
35239;SDS011;21376;50.954;4.716;2024-02-14T06:17:18;20.80;;;11.60;;
35239;SDS011;21376;50.954;4.716;2024-02-14T06:19:45;20.35;;;10.05;;
35239;SDS011;21376;50.954;4.716;2024-02-14T06:22:13;21.70;;;11.25;;
35239;SDS011;21376;50.954;4.716;2024-02-14T06:24:39;19.77;;;10.70;;
35239;SDS011;21376;50.954;4.716;2024-02-14T06:27:17;15.57;;;10.38;;
35239;SDS011;21376;50.954;4.716;2024-02-14T06:29:47;17.58;;;10.82;;
35239;SDS011;21376;50.954;4.716;2024-02-14T06:32:16;18.35;;;10.50;;
35239;SDS011;21376;50.954;4.716;2024-02-14T06:37:13;13.98;;;8.88;;
35239;SDS011;21376;50.954;4.716;2024-02-14T06:39:41;16.42;;;9.77;;
35239;SDS011;21376;50.954;4.716;2024-02-14T06:42:16;17.42;;;9.57;;
35239;SDS011;21376;50.954;4.716;2024-02-14T06:44:46;18.60;;;9.45;;
35239;SDS011;21376;50.954;4.716;2024-02-14T06:47:29;16.27;;;9.32;;
35239;SDS011;21376;50.954;4.716;2024-02-14T06:50:01;13.50;;;9.27;;
35239;SDS011;21376;50.954;4.716;2024-02-14T06:54:56;16.67;;;9.75;;
35239;SDS011;21376;50.954;4.716;2024-02-14T06:57:33;17.70;;;9.50;;
35239;SDS011;21376;50.954;4.716;2024-02-14T07:02:34;15.90;;;9.07;;
35239;SDS011;21376;50.954;4.716;2024-02-14T07:05:03;18.40;;;9.77;;
35239;SDS011;21376;50.954;4.716;2024-02-14T07:07:29;16.00;;;8.93;;
35239;SDS011;21376;50.954;4.716;2024-02-14T07:09:56;21.15;;;9.48;;
35239;SDS011;21376;50.954;4.716;2024-02-14T07:12:25;17.60;;;9.27;;
35239;SDS011;21376;50.954;4.716;2024-02-14T07:17:23;15.57;;;8.45;;
35239;SDS011;21376;50.954;4.716;2024-02-14T07:19:52;21.33;;;9.73;;
35239;SDS011;21376;50.954;4.716;2024-02-14T07:22:19;14.32;;;9.07;;
35239;SDS011;21376;50.954;4.716;2024-02-14T07:28:11;16.52;;;9.77;;
35239;SDS011;21376;50.954;4.716;2024-02-14T07:30:40;18.13;;;9.75;;
35239;SDS011;21376;50.954;4.716;2024-02-14T07:33:09;21.15;;;11.93;;
35239;SDS011;21376;50.954;4.716;2024-02-14T07:35:38;20.80;;;12.27;;
35239;SDS011;21376;50.954;4.716;2024-02-14T07:38:07;16.70;;;9.27;;
35239;SDS011;21376;50.954;4.716;2024-02-14T07:40:36;32.80;;;15.10;;
35239;SDS011;21376;50.954;4.716;2024-02-14T07:43:08;19.65;;;12.13;;
35239;SDS011;21376;50.954;4.716;2024-02-14T07:45:36;20.42;;;10.05;;
35239;SDS011;21376;50.954;4.716;2024-02-14T07:54:00;13.80;;;8.63;;
35239;SDS011;21376;50.954;4.716;2024-02-14T07:58:55;20.77;;;8.73;;
35239;SDS011;21376;50.954;4.716;2024-02-14T08:01:25;15.15;;;8.75;;
35239;SDS011;21376;50.954;4.716;2024-02-14T08:03:54;17.77;;;9.10;;
35239;SDS011;21376;50.954;4.716;2024-02-14T08:23:50;15.20;;;8.25;;
35239;SDS011;21376;50.954;4.716;2024-02-14T08:26:16;14.75;;;9.02;;
35239;SDS011;21376;50.954;4.716;2024-02-14T08:28:45;15.23;;;8.85;;
35239;SDS011;21376;50.954;4.716;2024-02-14T08:33:42;14.90;;;8.73;;
35239;SDS011;21376;50.954;4.716;2024-02-14T08:39:30;19.92;;;10.98;;
35239;SDS011;21376;50.954;4.716;2024-02-14T08:41:59;22.27;;;11.32;;
35239;SDS011;21376;50.954;4.716;2024-02-14T08:44:31;18.98;;;11.60;;
35239;SDS011;21376;50.954;4.716;2024-02-14T08:47:00;18.88;;;10.98;;
35239;SDS011;21376;50.954;4.716;2024-02-14T08:49:29;18.95;;;11.68;;
35239;SDS011;21376;50.954;4.716;2024-02-14T08:58:00;22.70;;;12.00;;
35239;SDS011;21376;50.954;4.716;2024-02-14T09:00:45;17.55;;;12.52;;
35239;SDS011;21376;50.954;4.716;2024-02-14T09:03:10;23.05;;;15.30;;
35239;SDS011;21376;50.954;4.716;2024-02-14T09:05:43;24.63;;;15.27;;
35239;SDS011;21376;50.954;4.716;2024-02-14T09:08:14;23.42;;;12.27;;
35239;SDS011;21376;50.954;4.716;2024-02-14T09:10:40;18.60;;;12.50;;
35239;SDS011;21376;50.954;4.716;2024-02-14T09:13:09;25.70;;;13.02;;
35239;SDS011;21376;50.954;4.716;2024-02-14T09:15:38;21.92;;;12.70;;
35239;SDS011;21376;50.954;4.716;2024-02-14T09:18:04;17.35;;;11.88;;
35239;SDS011;21376;50.954;4.716;2024-02-14T09:20:33;24.60;;;12.85;;
35239;SDS011;21376;50.954;4.716;2024-02-14T09:31:20;18.35;;;12.35;;
35239;SDS011;21376;50.954;4.716;2024-02-14T09:33:52;24.30;;;14.90;;
35239;SDS011;21376;50.954;4.716;2024-02-14T09:36:25;19.45;;;13.38;;
35239;SDS011;21376;50.954;4.716;2024-02-14T10:00:05;20.10;;;13.63;;
35239;SDS011;21376;50.954;4.716;2024-02-14T10:02:34;19.20;;;13.20;;
35239;SDS011;21376;50.954;4.716;2024-02-14T10:05:01;22.58;;;13.52;;
35239;SDS011;21376;50.954;4.716;2024-02-14T10:07:27;24.05;;;14.05;;
35239;SDS011;21376;50.954;4.716;2024-02-14T10:12:30;19.33;;;11.70;;
35239;SDS011;21376;50.954;4.716;2024-02-14T10:15:07;17.90;;;12.80;;
35239;SDS011;21376;50.954;4.716;2024-02-14T10:17:38;19.83;;;12.68;;
35239;SDS011;21376;50.954;4.716;2024-02-14T10:20:05;20.23;;;13.52;;
35239;SDS011;21376;50.954;4.716;2024-02-14T10:22:37;19.27;;;11.55;;
35239;SDS011;21376;50.954;4.716;2024-02-14T10:27:37;13.13;;;10.00;;
35239;SDS011;21376;50.954;4.716;2024-02-14T10:30:12;18.25;;;10.23;;
35239;SDS011;21376;50.954;4.716;2024-02-14T10:32:42;13.38;;;8.00;;
35239;SDS011;21376;50.954;4.716;2024-02-14T10:35:16;11.07;;;8.88;;
35239;SDS011;21376;50.954;4.716;2024-02-14T10:37:48;14.77;;;8.40;;
35239;SDS011;21376;50.954;4.716;2024-02-14T10:40:18;13.05;;;8.65;;
35239;SDS011;21376;50.954;4.716;2024-02-14T10:42:49;10.73;;;8.25;;
35239;SDS011;21376;50.954;4.716;2024-02-14T10:50:17;11.95;;;6.90;;
35239;SDS011;21376;50.954;4.716;2024-02-14T10:55:20;11.73;;;7.90;;
35239;SDS011;21376;50.954;4.716;2024-02-14T10:57:55;9.40;;;7.13;;
35239;SDS011;21376;50.954;4.716;2024-02-14T11:00:22;9.95;;;6.60;;
35239;SDS011;21376;50.954;4.716;2024-02-14T12:33:22;7.80;;;5.25;;
35239;SDS011;21376;50.954;4.716;2024-02-14T12:36:10;6.40;;;4.50;;
35239;SDS011;21376;50.954;4.716;2024-02-14T12:43:36;7.07;;;4.43;;
35239;SDS011;21376;50.954;4.716;2024-02-14T12:46:08;6.40;;;4.57;;
35239;SDS011;21376;50.954;4.716;2024-02-14T12:48:37;8.00;;;5.00;;
35239;SDS011;21376;50.954;4.716;2024-02-14T12:51:03;9.93;;;4.78;;
35239;SDS011;21376;50.954;4.716;2024-02-14T12:53:32;9.40;;;4.63;;
35239;SDS011;21376;50.954;4.716;2024-02-14T12:58:31;9.30;;;4.63;;
35239;SDS011;21376;50.954;4.716;2024-02-14T13:00:59;6.63;;;5.10;;
35239;SDS011;21376;50.954;4.716;2024-02-14T13:03:29;10.65;;;5.53;;
35239;SDS011;21376;50.954;4.716;2024-02-14T13:12:20;9.23;;;6.15;;
35239;SDS011;21376;50.954;4.716;2024-02-14T13:14:49;12.70;;;7.28;;
35239;SDS011;21376;50.954;4.716;2024-02-14T13:17:17;11.10;;;7.80;;
35239;SDS011;21376;50.954;4.716;2024-02-14T13:19:45;12.85;;;7.30;;
35239;SDS011;21376;50.954;4.716;2024-02-14T13:24:46;15.60;;;9.05;;
35239;SDS011;21376;50.954;4.716;2024-02-14T13:29:40;16.52;;;8.48;;
35239;SDS011;21376;50.954;4.716;2024-02-14T13:32:07;16.25;;;9.18;;
35239;SDS011;21376;50.954;4.716;2024-02-14T13:34:36;14.52;;;7.57;;
35239;SDS011;21376;50.954;4.716;2024-02-14T13:37:02;13.18;;;8.10;;
35239;SDS011;21376;50.954;4.716;2024-02-14T13:41:58;12.77;;;7.35;;
35239;SDS011;21376;50.954;4.716;2024-02-14T13:47:20;11.77;;;6.55;;
35239;SDS011;21376;50.954;4.716;2024-02-14T13:49:49;15.23;;;9.57;;
35239;SDS011;21376;50.954;4.716;2024-02-14T13:52:19;18.20;;;8.45;;
35239;SDS011;21376;50.954;4.716;2024-02-14T13:57:17;11.07;;;6.40;;
35239;SDS011;21376;50.954;4.716;2024-02-14T14:02:15;11.23;;;6.80;;
35239;SDS011;21376;50.954;4.716;2024-02-14T14:04:40;15.27;;;7.60;;
35239;SDS011;21376;50.954;4.716;2024-02-14T14:07:07;10.20;;;6.10;;
35239;SDS011;21376;50.954;4.716;2024-02-14T14:09:34;14.52;;;7.35;;
35239;SDS011;21376;50.954;4.716;2024-02-14T14:14:32;10.60;;;5.47;;
35239;SDS011;21376;50.954;4.716;2024-02-14T14:16:58;8.77;;;4.75;;
35239;SDS011;21376;50.954;4.716;2024-02-14T14:19:25;15.13;;;6.78;;
35239;SDS011;21376;50.954;4.716;2024-02-14T14:21:57;10.07;;;6.10;;
35239;SDS011;21376;50.954;4.716;2024-02-14T14:27:28;11.30;;;5.45;;
35239;SDS011;21376;50.954;4.716;2024-02-14T14:29:54;9.00;;;4.50;;
35239;SDS011;21376;50.954;4.716;2024-02-14T14:32:23;7.95;;;4.50;;
35239;SDS011;21376;50.954;4.716;2024-02-14T14:34:52;9.95;;;4.65;;
35239;SDS011;21376;50.954;4.716;2024-02-14T14:37:19;9.48;;;4.80;;
35239;SDS011;21376;50.954;4.716;2024-02-14T14:40:00;8.30;;;5.00;;
35239;SDS011;21376;50.954;4.716;2024-02-14T14:42:35;9.27;;;4.30;;
35239;SDS011;21376;50.954;4.716;2024-02-14T14:47:33;9.82;;;4.78;;
35239;SDS011;21376;50.954;4.716;2024-02-14T14:52:55;8.73;;;4.40;;
35239;SDS011;21376;50.954;4.716;2024-02-14T14:55:24;17.63;;;7.90;;
35239;SDS011;21376;50.954;4.716;2024-02-14T14:57:50;7.20;;;4.60;;
35239;SDS011;21376;50.954;4.716;2024-02-14T15:00:31;8.40;;;4.35;;
35239;SDS011;21376;50.954;4.716;2024-02-14T15:03:01;10.65;;;4.22;;
35239;SDS011;21376;50.954;4.716;2024-02-14T15:05:29;8.52;;;4.82;;
35239;SDS011;21376;50.954;4.716;2024-02-14T15:07:56;9.73;;;5.10;;
35239;SDS011;21376;50.954;4.716;2024-02-14T15:13:13;9.02;;;5.53;;
35239;SDS011;21376;50.954;4.716;2024-02-14T15:18:59;7.10;;;4.95;;
35239;SDS011;21376;50.954;4.716;2024-02-14T15:21:26;8.18;;;6.05;;
35239;SDS011;21376;50.954;4.716;2024-02-14T15:24:03;9.80;;;5.10;;
35239;SDS011;21376;50.954;4.716;2024-02-14T15:26:35;7.70;;;4.80;;
35239;SDS011;21376;50.954;4.716;2024-02-14T15:29:32;8.57;;;4.55;;
35239;SDS011;21376;50.954;4.716;2024-02-14T15:32:33;8.40;;;3.75;;
35239;SDS011;21376;50.954;4.716;2024-02-14T15:37:47;4.78;;;3.20;;
35239;SDS011;21376;50.954;4.716;2024-02-14T15:40:20;7.03;;;3.22;;
35239;SDS011;21376;50.954;4.716;2024-02-14T15:42:50;6.90;;;3.70;;
35239;SDS011;21376;50.954;4.716;2024-02-14T15:45:20;7.82;;;3.97;;
35239;SDS011;21376;50.954;4.716;2024-02-14T15:47:48;6.03;;;3.55;;
35239;SDS011;21376;50.954;4.716;2024-02-14T15:50:17;7.68;;;4.32;;
35239;SDS011;21376;50.954;4.716;2024-02-14T15:52:46;8.32;;;4.35;;
35239;SDS011;21376;50.954;4.716;2024-02-14T15:55:14;7.65;;;4.63;;
35239;SDS011;21376;50.954;4.716;2024-02-14T15:57:42;8.65;;;4.60;;
35239;SDS011;21376;50.954;4.716;2024-02-14T16:02:44;9.98;;;4.85;;
35239;SDS011;21376;50.954;4.716;2024-02-14T16:05:11;11.48;;;4.93;;
35239;SDS011;21376;50.954;4.716;2024-02-14T16:26:12;8.32;;;5.43;;
35239;SDS011;21376;50.954;4.716;2024-02-14T16:28:40;10.75;;;5.47;;
35239;SDS011;21376;50.954;4.716;2024-02-14T16:31:07;8.57;;;5.75;;
35239;SDS011;21376;50.954;4.716;2024-02-14T16:33:33;11.32;;;6.45;;
35239;SDS011;21376;50.954;4.716;2024-02-14T16:35:59;11.57;;;7.47;;
35239;SDS011;21376;50.954;4.716;2024-02-14T16:38:33;12.63;;;5.80;;
35239;SDS011;21376;50.954;4.716;2024-02-14T16:45:59;10.35;;;6.45;;
35239;SDS011;21376;50.954;4.716;2024-02-14T16:48:28;13.60;;;5.47;;
35239;SDS011;21376;50.954;4.716;2024-02-14T16:50:59;13.93;;;5.80;;
35239;SDS011;21376;50.954;4.716;2024-02-14T16:53:31;13.50;;;6.38;;
35239;SDS011;21376;50.954;4.716;2024-02-14T16:56:00;30.90;;;12.20;;
35239;SDS011;21376;50.954;4.716;2024-02-14T17:00:54;18.55;;;7.97;;
35239;SDS011;21376;50.954;4.716;2024-02-14T17:03:30;16.60;;;7.60;;
35239;SDS011;21376;50.954;4.716;2024-02-14T17:10:59;14.13;;;6.40;;
35239;SDS011;21376;50.954;4.716;2024-02-14T17:13:27;18.58;;;8.63;;
35239;SDS011;21376;50.954;4.716;2024-02-14T17:15:56;24.40;;;12.98;;
35239;SDS011;21376;50.954;4.716;2024-02-14T17:20:56;13.32;;;7.70;;
35239;SDS011;21376;50.954;4.716;2024-02-14T17:23:37;21.77;;;11.00;;
35239;SDS011;21376;50.954;4.716;2024-02-14T17:26:05;20.25;;;8.18;;
35239;SDS011;21376;50.954;4.716;2024-02-14T17:28:35;18.23;;;8.38;;
35239;SDS011;21376;50.954;4.716;2024-02-14T17:31:04;13.60;;;7.43;;
35239;SDS011;21376;50.954;4.716;2024-02-14T17:33:31;15.35;;;7.75;;
35239;SDS011;21376;50.954;4.716;2024-02-14T17:38:55;22.70;;;9.38;;
35239;SDS011;21376;50.954;4.716;2024-02-14T17:41:26;24.60;;;9.43;;
35239;SDS011;21376;50.954;4.716;2024-02-14T17:43:55;15.35;;;8.07;;
35239;SDS011;21376;50.954;4.716;2024-02-14T17:46:32;17.17;;;7.68;;
35239;SDS011;21376;50.954;4.716;2024-02-14T17:49:01;23.13;;;8.68;;
35239;SDS011;21376;50.954;4.716;2024-02-14T17:51:27;16.95;;;8.15;;
35239;SDS011;21376;50.954;4.716;2024-02-14T17:53:59;18.20;;;8.02;;
35239;SDS011;21376;50.954;4.716;2024-02-14T17:56:37;17.52;;;7.82;;
35239;SDS011;21376;50.954;4.716;2024-02-14T17:59:05;17.15;;;7.93;;
35239;SDS011;21376;50.954;4.716;2024-02-14T18:01:34;17.33;;;8.43;;
35239;SDS011;21376;50.954;4.716;2024-02-14T18:04:07;17.90;;;8.50;;
35239;SDS011;21376;50.954;4.716;2024-02-14T18:13:50;21.60;;;9.70;;
35239;SDS011;21376;50.954;4.716;2024-02-14T18:16:21;35.22;;;14.23;;
35239;SDS011;21376;50.954;4.716;2024-02-14T18:18:48;30.75;;;14.38;;
35239;SDS011;21376;50.954;4.716;2024-02-14T18:21:18;16.52;;;8.60;;
35239;SDS011;21376;50.954;4.716;2024-02-14T18:24:03;21.13;;;9.23;;
35239;SDS011;21376;50.954;4.716;2024-02-14T18:26:32;17.30;;;8.60;;
35239;SDS011;21376;50.954;4.716;2024-02-14T18:29:04;15.55;;;7.60;;
35239;SDS011;21376;50.954;4.716;2024-02-14T18:31:30;16.90;;;9.05;;
35239;SDS011;21376;50.954;4.716;2024-02-14T18:33:57;16.50;;;8.27;;
35239;SDS011;21376;50.954;4.716;2024-02-14T18:36:26;16.00;;;7.53;;
35239;SDS011;21376;50.954;4.716;2024-02-14T18:41:54;15.82;;;6.97;;
35239;SDS011;21376;50.954;4.716;2024-02-14T18:46:53;11.23;;;6.47;;
35239;SDS011;21376;50.954;4.716;2024-02-14T18:49:24;18.95;;;8.40;;
35239;SDS011;21376;50.954;4.716;2024-02-14T19:00:35;18.30;;;6.78;;
35239;SDS011;21376;50.954;4.716;2024-02-14T19:03:04;14.05;;;7.00;;
35239;SDS011;21376;50.954;4.716;2024-02-14T19:05:33;14.73;;;6.32;;
35239;SDS011;21376;50.954;4.716;2024-02-14T19:08:02;14.52;;;5.82;;
35239;SDS011;21376;50.954;4.716;2024-02-14T19:10:31;14.10;;;6.57;;
35239;SDS011;21376;50.954;4.716;2024-02-14T19:21:51;16.58;;;7.60;;
35239;SDS011;21376;50.954;4.716;2024-02-14T19:24:20;25.10;;;7.72;;
35239;SDS011;21376;50.954;4.716;2024-02-14T19:29:18;11.23;;;6.68;;
35239;SDS011;21376;50.954;4.716;2024-02-14T19:31:47;15.05;;;7.60;;
35239;SDS011;21376;50.954;4.716;2024-02-14T19:34:16;17.65;;;7.70;;
35239;SDS011;21376;50.954;4.716;2024-02-14T19:39:14;16.73;;;7.47;;
35239;SDS011;21376;50.954;4.716;2024-02-14T19:44:13;16.65;;;7.40;;
35239;SDS011;21376;50.954;4.716;2024-02-14T19:49:11;16.20;;;9.15;;
35239;SDS011;21376;50.954;4.716;2024-02-14T19:51:43;19.77;;;11.00;;
35239;SDS011;21376;50.954;4.716;2024-02-14T19:56:40;19.58;;;9.05;;
35239;SDS011;21376;50.954;4.716;2024-02-14T20:01:36;14.75;;;9.77;;
35239;SDS011;21376;50.954;4.716;2024-02-14T20:04:03;20.15;;;9.63;;
35239;SDS011;21376;50.954;4.716;2024-02-14T20:06:34;17.65;;;10.27;;
35239;SDS011;21376;50.954;4.716;2024-02-14T20:09:01;19.85;;;11.38;;
35239;SDS011;21376;50.954;4.716;2024-02-14T20:11:28;23.27;;;11.05;;
35239;SDS011;21376;50.954;4.716;2024-02-14T20:13:54;30.25;;;12.45;;
35239;SDS011;21376;50.954;4.716;2024-02-14T20:16:25;23.83;;;12.57;;
35239;SDS011;21376;50.954;4.716;2024-02-14T20:24:49;22.55;;;13.32;;
35239;SDS011;21376;50.954;4.716;2024-02-14T20:29:47;31.33;;;15.93;;
35239;SDS011;21376;50.954;4.716;2024-02-14T20:34:55;45.72;;;19.65;;
35239;SDS011;21376;50.954;4.716;2024-02-14T20:55:31;34.35;;;18.90;;
35239;SDS011;21376;50.954;4.716;2024-02-14T20:58:03;43.95;;;19.88;;
35239;SDS011;21376;50.954;4.716;2024-02-14T21:00:41;35.92;;;18.02;;
35239;SDS011;21376;50.954;4.716;2024-02-14T21:03:08;35.30;;;21.15;;
35239;SDS011;21376;50.954;4.716;2024-02-14T21:05:37;32.72;;;20.10;;
35239;SDS011;21376;50.954;4.716;2024-02-14T21:08:05;37.92;;;21.50;;
35239;SDS011;21376;50.954;4.716;2024-02-14T21:13:53;35.67;;;21.17;;
35239;SDS011;21376;50.954;4.716;2024-02-14T21:16:19;38.03;;;19.60;;
35239;SDS011;21376;50.954;4.716;2024-02-14T21:21:17;39.42;;;23.83;;
35239;SDS011;21376;50.954;4.716;2024-02-14T21:26:14;37.65;;;23.02;;
35239;SDS011;21376;50.954;4.716;2024-02-14T21:28:57;27.95;;;18.80;;
35239;SDS011;21376;50.954;4.716;2024-02-14T21:31:26;30.88;;;17.77;;
35239;SDS011;21376;50.954;4.716;2024-02-14T21:36:26;28.13;;;15.93;;
35239;SDS011;21376;50.954;4.716;2024-02-14T21:38:53;32.75;;;16.42;;
35239;SDS011;21376;50.954;4.716;2024-02-14T21:49:26;24.38;;;11.95;;
35239;SDS011;21376;50.954;4.716;2024-02-14T21:51:58;22.30;;;11.63;;
35239;SDS011;21376;50.954;4.716;2024-02-14T21:57:08;18.73;;;11.23;;
35239;SDS011;21376;50.954;4.716;2024-02-14T21:59:36;20.08;;;12.23;;
35239;SDS011;21376;50.954;4.716;2024-02-14T22:02:08;18.55;;;11.27;;
35239;SDS011;21376;50.954;4.716;2024-02-14T22:07:06;22.83;;;12.68;;
35239;SDS011;21376;50.954;4.716;2024-02-14T22:12:06;26.73;;;14.13;;
35239;SDS011;21376;50.954;4.716;2024-02-14T22:14:32;26.00;;;15.25;;
35239;SDS011;21376;50.954;4.716;2024-02-14T22:17:05;25.38;;;14.50;;
35239;SDS011;21376;50.954;4.716;2024-02-14T22:19:33;27.48;;;13.65;;
35239;SDS011;21376;50.954;4.716;2024-02-14T22:24:46;24.77;;;13.15;;
35239;SDS011;21376;50.954;4.716;2024-02-14T22:27:15;25.90;;;13.05;;
35239;SDS011;21376;50.954;4.716;2024-02-14T22:29:45;25.20;;;12.90;;
35239;SDS011;21376;50.954;4.716;2024-02-14T22:38:22;30.08;;;15.95;;
35239;SDS011;21376;50.954;4.716;2024-02-14T22:40:54;27.70;;;15.02;;
35239;SDS011;21376;50.954;4.716;2024-02-14T22:43:23;33.85;;;18.42;;
35239;SDS011;21376;50.954;4.716;2024-02-14T22:48:43;35.15;;;18.95;;
35239;SDS011;21376;50.954;4.716;2024-02-14T22:51:12;40.15;;;25.88;;
35239;SDS011;21376;50.954;4.716;2024-02-14T22:53:38;46.95;;;28.23;;
35239;SDS011;21376;50.954;4.716;2024-02-14T22:56:08;28.48;;;17.63;;
35239;SDS011;21376;50.954;4.716;2024-02-14T22:58:38;32.00;;;16.70;;
35239;SDS011;21376;50.954;4.716;2024-02-14T23:01:10;26.08;;;12.95;;